Aérodrome :
LOGIN :

S'inscrire | Disclaimer

   EN    FR    IT 

 










Légende :    VFR   VFR Marginal   IFR   IFR Intensif   IFR Très Intensif
Visi : 
Plafond : 
>= 8 km
>= 3000ft
5 à 8 km
1000 à 3000 ft
1500m à 5 km
500 à 1000 ft
800 à 1500m
200 à 500 ft
< 800m
< 200 ft
Symboles :   Orages  Brouillard  Fortes neiges  Fortes précipitations  Vent > 20 kt
SIGMETs :   Divers  Orages  Givrage  Turbulence  Onde Orograph.  Cendres Volcan.






- Altitude de l'aérodrome : -15 ft
- Code IATA : RTM


EHRD - Rotterdam Zestienhoven

DERNIER METAR :
  • 051355Z AUTO 16005KT 080V200 9999 NSC 23/14 Q1006 NOSIG

METARs EXPIRÉS :
  • 051325Z AUTO 18007KT 130V230 9999 BKN049 22/13 Q1007 NOSIG
  • 051255Z AUTO VRB04KT 9999 FEW043 22/13 Q1007 NOSIG
  • 051225Z AUTO 17006KT 110V240 9999 NSC 22/13 Q1007 NOSIG
  • 051155Z AUTO 17006KT 120V220 9999 NSC 22/12 Q1008 NOSIG
  • 051125Z AUTO 15005KT 080V210 9999 SCT038 BKN043 22/12 Q1008 NOSIG

TAF TAF EHRD
Valide du 05 à 12h jusqu'au 06 à 18h UTC


051109Z 0512/0618 VRB03KT 9999 SCT035
PROB40
TEMPO 0512/0517 20015KT 5000 SHRA SCT025CB
BECMG 0521/0524 15010KT
TEMPO 0600/0613 5000 RA SHRA SCT009 BKN014 FEW020CB
BECMG 0606/0609 20012KT
BECMG 0612/0614 23016G26KT



MET'MAP, la Météo Aéronautique d'un coup d'oeil ! - Copyright ORBIFLY Décembre 2007 - Disclaimer

ORBIFLY MET'MAP TEAM :

Programmation & Développement : Alexandra Zaïnal
Sur une idée originale de : Baudouin d'Aumeries
Assistance à la programmation : Marc-Olivier Méhu
Soutien technique & logistique : Manuel Goepfert

Contact : metmap@orbifly.com




SOURCES & CREDITS :

   NOAA